Time;durP1;ratioP1;P1;durP2;ratioP2;P2;SDS_P1;SDS_P2;PMS_P1;PMS_P2;Temp;Humidity;BMP_temperature;BMP_pressure;BME280_temperature;BME280_humidity;BME280_pressure;Samples;Min_cycle;Max_cycle;Signal;HPM_P1;HPM_P2
2022/05/01 00:01:23;;;;;;;10.57;9.47;;;6.00;99.90;;;;;;5028852;28;20273;-81
2022/05/01 00:03:50;;;;;;;10.13;9.00;;;6.00;99.90;;;;;;5029193;28;20205;-81
2022/05/01 00:06:19;;;;;;;10.57;8.87;;;6.00;99.90;;;;;;5029022;28;20214;-85
2022/05/01 00:08:45;;;;;;;10.83;8.93;;;6.00;99.90;;;;;;5023719;28;20212;-86
2022/05/01 00:11:14;;;;;;;11.20;8.63;;;5.90;99.90;;;;;;5008702;28;20596;-83
2022/05/01 00:13:43;;;;;;;10.93;9.03;;;5.90;99.90;;;;;;5008070;28;20231;-80
2022/05/01 00:16:10;;;;;;;11.40;10.20;;;5.90;99.90;;;;;;5007706;28;20215;-83
2022/05/01 00:18:37;;;;;;;13.00;9.07;;;5.90;99.90;;;;;;5008695;28;20214;-81
2022/05/01 00:21:05;;;;;;;12.03;10.03;;;5.90;99.90;;;;;;5008075;28;20880;-81
2022/05/01 00:23:32;;;;;;;11.87;9.10;;;5.90;99.90;;;;;;5007609;28;20214;-87
2022/05/01 00:25:59;;;;;;;10.23;9.03;;;5.80;99.90;;;;;;5007971;28;20214;-82
2022/05/01 00:28:28;;;;;;;9.63;8.60;;;5.80;99.90;;;;;;5009400;28;20203;-83
2022/05/01 00:30:55;;;;;;;9.90;8.37;;;5.80;99.90;;;;;;5009406;28;20514;-82
2022/05/01 00:38:50;;;;;;;10.97;9.30;;;5.70;99.90;;;;;;5008308;28;20229;-84
2022/05/01 00:41:17;;;;;;;10.30;8.63;;;5.70;99.90;;;;;;5008732;28;20290;-81
2022/05/01 00:43:59;;;;;;;9.57;8.07;;;5.70;99.90;;;;;;5009363;28;20210;-81
2022/05/01 00:46:25;;;;;;;12.40;9.00;;;5.70;99.90;;;;;;5009544;28;20977;-82
2022/05/01 00:48:53;;;;;;;10.10;8.77;;;5.60;99.90;;;;;;5009827;28;20782;-81
2022/05/01 00:51:21;;;;;;;9.17;8.23;;;5.60;99.90;;;;;;5008808;28;20246;-80
2022/05/01 00:53:49;;;;;;;10.97;8.87;;;5.60;99.90;;;;;;5009601;28;20227;-82
2022/05/01 00:56:16;;;;;;;9.80;8.40;;;5.60;99.90;;;;;;5009429;28;20214;-82
2022/05/01 00:58:43;;;;;;;10.60;8.70;;;5.60;99.90;;;;;;5009761;28;20195;-86
2022/05/01 01:01:13;;;;;;;9.70;8.70;;;5.50;99.90;;;;;;5010031;28;20234;-80
2022/05/01 01:03:40;;;;;;;10.90;9.73;;;5.50;99.90;;;;;;5011007;28;20211;-80
2022/05/01 01:06:07;;;;;;;10.40;8.53;;;5.50;99.90;;;;;;5009163;28;20218;-85
2022/05/01 01:08:34;;;;;;;10.63;8.90;;;5.50;99.90;;;;;;5010274;28;20222;-86
2022/05/01 01:11:01;;;;;;;10.03;8.70;;;5.50;99.90;;;;;;5010135;28;20487;-80
2022/05/01 01:13:29;;;;;;;12.33;9.27;;;5.40;99.90;;;;;;5009673;28;20963;-82
2022/05/01 01:15:56;;;;;;;12.30;10.20;;;5.40;99.90;;;;;;5011564;28;20207;-85
2022/05/01 01:18:26;;;;;;;11.77;9.30;;;5.40;99.90;;;;;;5011860;28;20237;-87
2022/05/01 01:20:55;;;;;;;11.20;9.27;;;5.40;99.90;;;;;;5012189;28;20999;-86
2022/05/01 01:23:22;;;;;;;10.87;9.10;;;5.30;99.90;;;;;;5012582;28;20199;-81
2022/05/01 01:25:50;;;;;;;13.17;10.17;;;5.30;99.90;;;;;;5009786;28;20215;-84
2022/05/01 01:28:19;;;;;;;12.17;10.53;;;5.30;99.90;;;;;;5010802;28;20247;-90
2022/05/01 01:33:31;;;;;;;12.40;9.47;;;5.30;99.90;;;;;;5008861;28;20210;-82
2022/05/01 01:36:03;;;;;;;10.83;9.40;;;5.20;99.90;;;;;;5009998;28;20226;-89
2022/05/01 01:38:31;;;;;;;10.73;9.20;;;5.20;99.90;;;;;;5008520;28;20196;-84
2022/05/01 01:41:04;;;;;;;10.67;9.27;;;5.20;99.90;;;;;;5006467;28;20627;-80
2022/05/01 01:43:32;;;;;;;10.07;8.43;;;5.20;99.90;;;;;;5007873;28;20878;-83
2022/05/01 01:45:59;;;;;;;11.03;9.57;;;5.10;99.90;;;;;;5007303;28;20588;-81
2022/05/01 01:48:25;;;;;;;13.13;9.93;;;5.10;99.90;;;;;;5006835;28;20202;-80
2022/05/01 01:50:58;;;;;;;9.53;8.33;;;5.10;99.90;;;;;;5012992;28;20206;-80
2022/05/01 01:53:27;;;;;;;11.27;9.53;;;5.10;99.90;;;;;;5027269;28;20258;-81
2022/05/01 01:55:54;;;;;;;12.37;10.13;;;5.00;99.90;;;;;;5028116;28;20209;-81
2022/05/01 01:58:21;;;;;;;10.17;9.07;;;5.00;99.90;;;;;;5008941;28;20218;-82
2022/05/01 02:00:48;;;;;;;11.33;9.43;;;5.00;99.90;;;;;;5007602;28;20900;-81
2022/05/01 02:03:15;;;;;;;11.57;9.07;;;5.00;99.90;;;;;;5007323;28;20882;-84
2022/05/01 02:05:43;;;;;;;11.20;9.53;;;4.90;99.90;;;;;;5007610;28;20238;-91
2022/05/01 02:08:11;;;;;;;9.70;8.30;;;4.90;99.90;;;;;;5008477;28;20588;-82
2022/05/01 02:10:39;;;;;;;11.20;9.40;;;4.90;99.90;;;;;;5007587;28;20207;-81
2022/05/01 02:13:06;;;;;;;10.43;9.10;;;4.90;99.90;;;;;;5007318;28;20239;-82
2022/05/01 02:15:35;;;;;;;9.27;8.20;;;4.90;99.90;;;;;;5007933;28;20202;-86
2022/05/01 02:18:03;;;;;;;9.87;8.77;;;4.90;99.90;;;;;;5009519;28;20473;-88
2022/05/01 02:21:34;;;;;;;11.73;9.37;;;4.80;99.90;;;;;;5016478;28;20219;-81
2022/05/01 02:23:20;;;;;;;11.10;8.23;;;4.80;99.90;;;;;;5006948;28;20260;-82
2022/05/01 02:25:48;;;;;;;10.93;9.17;;;4.80;99.90;;;;;;5008881;28;20200;-90
2022/05/01 02:28:16;;;;;;;10.63;7.90;;;4.80;99.90;;;;;;5007376;28;20639;-82
2022/05/01 02:30:43;;;;;;;9.30;8.13;;;4.80;99.90;;;;;;5008627;28;20203;-79
2022/05/01 02:33:09;;;;;;;9.00;7.90;;;4.70;99.90;;;;;;5008168;28;20383;-81
2022/05/01 02:35:36;;;;;;;12.30;9.30;;;4.70;99.90;;;;;;5018068;28;20206;-87
2022/05/01 02:38:04;;;;;;;11.90;9.83;;;4.70;99.90;;;;;;5028712;28;20282;-85
2022/05/01 02:40:32;;;;;;;11.63;9.30;;;4.70;99.90;;;;;;5008815;28;20214;-82
2022/05/01 02:43:00;;;;;;;9.53;8.47;;;4.70;99.90;;;;;;5009909;28;20205;-87
2022/05/01 02:45:27;;;;;;;9.40;8.40;;;4.70;99.90;;;;;;5009728;28;20257;-90
2022/05/01 02:47:55;;;;;;;9.33;8.33;;;4.60;99.90;;;;;;5008701;28;20196;-84
2022/05/01 02:50:22;;;;;;;11.50;8.67;;;4.60;99.90;;;;;;5008321;28;20527;-82
2022/05/01 02:52:51;;;;;;;9.47;8.47;;;4.60;99.90;;;;;;5009133;28;20841;-83
2022/05/01 02:55:17;;;;;;;10.40;8.30;;;4.60;99.90;;;;;;5011387;28;20203;-90
2022/05/01 02:57:44;;;;;;;9.57;8.53;;;4.60;99.90;;;;;;5011397;28;20199;-83
2022/05/01 03:00:16;;;;;;;9.47;8.37;;;4.60;99.90;;;;;;5009689;28;20347;-90
2022/05/01 03:02:44;;;;;;;9.97;8.77;;;4.60;99.90;;;;;;5011901;28;20290;-89
2022/05/01 03:05:11;;;;;;;10.43;8.83;;;4.50;99.90;;;;;;5022999;28;20225;-88
2022/05/01 03:07:38;;;;;;;11.07;9.90;;;4.50;99.90;;;;;;5023639;28;20231;-89
2022/05/01 03:10:06;;;;;;;11.83;9.33;;;4.50;99.90;;;;;;5008677;28;20203;-87
2022/05/01 03:12:32;;;;;;;9.10;7.80;;;4.50;99.90;;;;;;5006844;28;20223;-87
2022/05/01 03:14:59;;;;;;;9.47;7.93;;;4.50;99.90;;;;;;5007007;28;20210;-89
2022/05/01 03:22:10;;;;;;;10.73;8.63;;;4.50;99.90;;;;;;5007113;28;20213;-84
2022/05/01 03:22:57;;;;;;;10.43;8.07;;;4.50;99.90;;;;;;4976952;28;20199;-82
2022/05/01 03:25:24;;;;;;;9.70;8.40;;;4.40;99.90;;;;;;5007333;28;20210;-84
2022/05/01 03:27:52;;;;;;;9.40;8.10;;;4.40;99.90;;;;;;5005771;28;20215;-82
2022/05/01 03:30:20;;;;;;;8.87;7.97;;;4.40;99.90;;;;;;5007754;28;20257;-80
2022/05/01 03:32:48;;;;;;;10.53;8.77;;;4.40;99.90;;;;;;5010051;28;20214;-82
2022/05/01 03:35:15;;;;;;;10.20;8.87;;;4.40;99.90;;;;;;5027366;28;20199;-81
2022/05/01 03:37:42;;;;;;;11.70;8.77;;;4.40;99.90;;;;;;5028392;28;20207;-84
2022/05/01 03:40:11;;;;;;;10.87;8.83;;;4.40;99.90;;;;;;5026901;28;20198;-83
2022/05/01 03:42:38;;;;;;;11.23;9.10;;;4.40;99.90;;;;;;5019148;28;20226;-81
2022/05/01 03:45:06;;;;;;;9.77;8.63;;;4.30;99.90;;;;;;5007379;28;20215;-81
2022/05/01 03:47:33;;;;;;;9.20;8.20;;;4.30;99.90;;;;;;5007956;28;20203;-80
2022/05/01 03:50:02;;;;;;;9.40;8.40;;;4.30;99.90;;;;;;5008287;28;20278;-82
2022/05/01 03:52:28;;;;;;;9.93;8.13;;;4.30;99.90;;;;;;5008678;28;20496;-80
2022/05/01 03:54:55;;;;;;;9.50;8.50;;;4.30;99.90;;;;;;5007859;28;20541;-86
2022/05/01 03:57:22;;;;;;;9.17;8.13;;;4.30;99.90;;;;;;5009057;28;20240;-85
2022/05/01 03:59:49;;;;;;;9.87;8.10;;;4.30;99.90;;;;;;5009275;28;20211;-82
2022/05/01 04:02:17;;;;;;;10.47;8.87;;;4.30;99.90;;;;;;5008049;28;20199;-85
2022/05/01 04:04:45;;;;;;;10.27;8.93;;;4.30;99.90;;;;;;5009397;28;20599;-88
2022/05/01 04:07:13;;;;;;;11.83;9.60;;;4.30;99.90;;;;;;5008266;28;20261;-81
2022/05/01 04:09:40;;;;;;;13.90;10.10;;;4.30;99.90;;;;;;5009267;28;20211;-83
2022/05/01 04:12:08;;;;;;;11.47;9.60;;;4.30;99.90;;;;;;5008157;28;20246;-80
2022/05/01 04:14:35;;;;;;;14.07;9.70;;;4.30;99.90;;;;;;5010789;28;20711;-83
2022/05/01 04:17:03;;;;;;;11.87;9.63;;;4.30;99.90;;;;;;5010581;28;20210;-81
2022/05/01 04:19:29;;;;;;;9.73;8.47;;;4.30;99.90;;;;;;5012979;28;20230;-83
2022/05/01 04:21:57;;;;;;;12.40;9.33;;;4.30;99.90;;;;;;5015209;28;20202;-84
2022/05/01 04:24:25;;;;;;;8.90;7.97;;;4.30;99.90;;;;;;5021216;28;20206;-87
2022/05/01 04:26:52;;;;;;;12.07;8.77;;;4.40;99.90;;;;;;5031915;28;20214;-81
2022/05/01 04:32:04;;;;;;;11.90;9.97;;;4.40;99.90;;;;;;5010435;28;20199;-80
2022/05/01 04:34:31;;;;;;;13.97;9.90;;;4.40;99.90;;;;;;5010853;28;20631;-85
2022/05/01 04:36:58;;;;;;;12.83;10.73;;;4.50;99.90;;;;;;5010226;28;20211;-80
2022/05/01 04:39:27;;;;;;;14.23;10.50;;;4.50;99.90;;;;;;5009716;28;20227;-82
2022/05/01 04:41:54;;;;;;;12.50;10.47;;;4.60;99.90;;;;;;5007915;28;20506;-81
2022/05/01 04:44:21;;;;;;;12.37;10.40;;;4.70;99.90;;;;;;5009026;28;20220;-82
2022/05/01 04:46:50;;;;;;;13.20;11.17;;;4.70;99.90;;;;;;5010178;28;20199;-82
2022/05/01 04:49:18;;;;;;;15.27;11.87;;;4.70;99.90;;;;;;5009859;28;20239;-81
2022/05/01 04:51:46;;;;;;;14.17;11.97;;;4.80;99.90;;;;;;5010305;28;20207;-81
2022/05/01 04:54:13;;;;;;;13.47;11.37;;;4.90;99.90;;;;;;5010134;28;20636;-90
2022/05/01 04:59:26;;;;;;;14.77;11.50;;;5.00;99.90;;;;;;5009280;28;20881;-82
2022/05/01 05:01:53;;;;;;;16.33;12.03;;;5.10;99.90;;;;;;5010022;28;20413;-84
2022/05/01 05:04:20;;;;;;;13.97;11.60;;;5.20;99.90;;;;;;5007092;28;20222;-89
2022/05/01 05:06:47;;;;;;;13.37;11.00;;;5.30;99.90;;;;;;5010570;28;20262;-83
2022/05/01 05:12:03;;;;;;;14.67;12.67;;;5.40;99.90;;;;;;5009216;28;20272;-85
2022/05/01 05:14:30;;;;;;;14.97;12.30;;;5.50;99.90;;;;;;5010305;28;20324;-83
2022/05/01 05:19:22;;;;;;;17.10;13.13;;;5.70;99.90;;;;;;5052244;23;20249;-84
2022/05/01 05:21:49;;;;;;;17.17;13.67;;;5.80;99.90;;;;;;5050064;28;20316;-88
2022/05/01 05:24:16;;;;;;;18.73;13.57;;;5.90;99.90;;;;;;5048084;28;20912;-82
2022/05/01 05:26:43;;;;;;;19.83;14.50;;;5.90;99.90;;;;;;5049165;28;20229;-84
2022/05/01 05:29:11;;;;;;;14.40;12.57;;;6.00;99.90;;;;;;5033174;28;20269;-83
2022/05/01 05:31:39;;;;;;;14.33;12.27;;;6.10;99.90;;;;;;5029579;28;20206;-83
2022/05/01 05:34:06;;;;;;;13.80;11.80;;;6.20;99.90;;;;;;5029270;28;20226;-84
2022/05/01 05:36:32;;;;;;;14.50;11.33;;;6.20;99.90;;;;;;5031077;28;20205;-82
2022/05/01 05:38:59;;;;;;;14.67;12.60;;;6.40;99.90;;;;;;5029648;28;20213;-83
2022/05/01 05:41:26;;;;;;;16.87;12.70;;;6.50;99.90;;;;;;5028961;28;20205;-81
2022/05/01 05:43:53;;;;;;;18.10;13.77;;;6.60;99.90;;;;;;5029411;28;20249;-83
2022/05/01 05:46:21;;;;;;;17.27;13.40;;;6.70;99.90;;;;;;5029664;28;20211;-81
2022/05/01 05:48:48;;;;;;;18.77;15.83;;;6.80;99.90;;;;;;5029464;28;20221;-83
2022/05/01 05:51:15;;;;;;;19.60;15.13;;;7.00;99.90;;;;;;5028841;28;20293;-81
2022/05/01 05:53:42;;;;;;;18.33;14.03;;;7.00;99.90;;;;;;5029749;28;20225;-85
2022/05/01 05:56:09;;;;;;;18.30;15.10;;;7.10;99.90;;;;;;5029050;28;20598;-82
2022/05/01 05:58:36;;;;;;;19.30;14.97;;;7.30;99.90;;;;;;5027913;28;20630;-80
2022/05/01 06:01:03;;;;;;;19.03;15.33;;;7.40;99.90;;;;;;5026232;28;20207;-83
2022/05/01 06:03:32;;;;;;;18.67;14.87;;;7.50;99.90;;;;;;5029753;28;20209;-88
2022/05/01 06:05:59;;;;;;;21.53;15.00;;;7.60;99.90;;;;;;5047332;28;20190;-81
2022/05/01 06:08:25;;;;;;;17.57;14.77;;;7.80;99.90;;;;;;5046500;28;20500;-83
2022/05/01 06:10:52;;;;;;;18.87;15.43;;;8.00;99.90;;;;;;5047065;28;20198;-80
2022/05/01 06:13:19;;;;;;;17.50;14.13;;;8.20;99.90;;;;;;5030473;28;20211;-83
2022/05/01 06:15:46;;;;;;;17.70;15.17;;;8.50;99.90;;;;;;5027173;28;20207;-83
2022/05/01 06:18:13;;;;;;;17.27;14.60;;;8.80;99.90;;;;;;5026848;28;20771;-81
2022/05/01 06:20:42;;;;;;;17.60;14.87;;;9.00;99.90;;;;;;5047272;28;20205;-82
2022/05/01 06:23:09;;;;;;;17.27;13.63;;;9.20;99.90;;;;;;5035492;28;20219;-84
2022/05/01 06:25:38;;;;;;;15.83;13.80;;;9.40;99.90;;;;;;5028578;28;20202;-84
2022/05/01 06:28:05;;;;;;;14.33;12.20;;;9.60;99.90;;;;;;5027941;28;20776;-82
2022/05/01 06:30:32;;;;;;;16.27;13.10;;;9.80;99.90;;;;;;5040848;28;20221;-82
2022/05/01 06:32:59;;;;;;;13.87;12.37;;;9.90;99.90;;;;;;5048202;28;20213;-87
2022/05/01 06:35:31;;;;;;;15.20;13.07;;;10.20;99.90;;;;;;5037881;28;20778;-83
2022/05/01 06:37:59;;;;;;;14.87;12.50;;;10.40;99.90;;;;;;5029780;28;20199;-86
2022/05/01 06:40:26;;;;;;;13.80;12.27;;;10.60;99.90;;;;;;5030917;28;20206;-85
2022/05/01 06:42:53;;;;;;;14.60;12.17;;;10.80;99.90;;;;;;5029188;28;20203;-86
2022/05/01 06:45:21;;;;;;;17.30;12.30;;;10.70;99.90;;;;;;5028770;28;20225;-80
2022/05/01 06:47:47;;;;;;;12.47;11.03;;;10.80;99.90;;;;;;5026179;28;20322;-80
2022/05/01 06:50:14;;;;;;;12.13;10.50;;;10.90;99.90;;;;;;5025347;28;20892;-82
2022/05/01 06:52:42;;;;;;;11.23;10.03;;;11.00;99.90;;;;;;5026010;28;20296;-81
2022/05/01 06:55:11;;;;;;;13.27;9.80;;;11.10;99.90;;;;;;5025657;28;20230;-84
2022/05/01 06:57:37;;;;;;;14.20;10.67;;;11.30;99.90;;;;;;5025810;28;20214;-80
2022/05/01 07:00:06;;;;;;;12.47;9.67;;;11.50;99.90;;;;;;5025692;28;20198;-83
2022/05/01 07:02:32;;;;;;;11.60;10.20;;;11.60;99.90;;;;;;5026603;28;20217;-81
2022/05/01 07:05:01;;;;;;;10.67;9.07;;;11.70;99.90;;;;;;5027044;28;20214;-84
2022/05/01 07:07:28;;;;;;;11.03;9.83;;;11.80;99.90;;;;;;5026491;28;20321;-82
2022/05/01 07:09:58;;;;;;;12.33;8.63;;;11.90;99.90;;;;;;5026890;28;20202;-84
2022/05/01 07:12:26;;;;;;;10.63;8.10;;;12.10;99.90;;;;;;5027445;28;20214;-87
2022/05/01 07:14:56;;;;;;;10.43;9.00;;;12.20;99.90;;;;;;5028011;28;20226;-81
2022/05/01 07:17:23;;;;;;;12.17;8.30;;;12.30;99.90;;;;;;5027280;28;20317;-86
2022/05/01 07:19:52;;;;;;;9.67;8.63;;;12.40;99.90;;;;;;5009965;28;20199;-83
2022/05/01 07:22:19;;;;;;;10.77;7.67;;;12.60;99.90;;;;;;5027507;28;20199;-82
2022/05/01 07:24:46;;;;;;;8.87;7.87;;;12.80;99.90;;;;;;5026381;28;20202;-85
2022/05/01 07:27:13;;;;;;;9.87;8.57;;;12.90;99.90;;;;;;5027107;28;20242;-84
2022/05/01 07:29:41;;;;;;;9.80;8.03;;;13.10;99.90;;;;;;5027497;28;20221;-84
2022/05/01 07:32:09;;;;;;;9.40;7.30;;;13.40;99.90;;;;;;5026598;28;20217;-83
2022/05/01 07:34:42;;;;;;;10.97;7.53;;;13.50;99.90;;;;;;5024996;28;21026;-85
2022/05/01 07:37:09;;;;;;;10.20;8.57;;;13.90;99.90;;;;;;5027668;28;20285;-85
2022/05/01 07:39:36;;;;;;;12.23;8.23;;;14.20;99.90;;;;;;5027973;28;20615;-86
2022/05/01 07:42:05;;;;;;;10.07;8.97;;;14.50;99.90;;;;;;5028192;28;20559;-84
2022/05/01 07:44:32;;;;;;;14.53;9.70;;;14.60;99.90;;;;;;5028354;28;20206;-86
2022/05/01 07:47:01;;;;;;;8.93;8.03;;;14.60;99.90;;;;;;5028353;28;20584;-87
2022/05/01 07:49:28;;;;;;;11.43;9.20;;;14.40;99.90;;;;;;5032540;28;20301;-85
2022/05/01 07:51:56;;;;;;;11.50;8.67;;;14.30;99.90;;;;;;5032071;28;20293;-86
2022/05/01 07:54:23;;;;;;;9.98;7.95;;;14.20;99.90;;;;;;5031154;28;20307;-85
2022/05/01 07:56:50;;;;;;;9.10;8.07;;;14.20;99.90;;;;;;5031714;28;20206;-86
2022/05/01 07:59:17;;;;;;;11.23;8.30;;;14.10;99.90;;;;;;5032364;28;20209;-87
2022/05/01 08:01:44;;;;;;;11.87;8.13;;;14.20;99.90;;;;;;5031111;28;20629;-86
2022/05/01 08:04:31;;;;;;;10.03;9.00;;;14.40;99.90;;;;;;5031734;28;20294;-88
2022/05/01 08:06:59;;;;;;;9.73;8.67;;;14.80;99.90;;;;;;5031798;28;20263;-83
2022/05/01 08:09:28;;;;;;;8.83;7.70;;;15.40;99.90;;;;;;5032151;28;20260;-84
2022/05/01 08:11:55;;;;;;;8.70;7.70;;;15.80;99.90;;;;;;5032049;28;20213;-85
2022/05/01 08:14:22;;;;;;;9.05;7.70;;;15.70;99.90;;;;;;5033851;28;20280;-84
2022/05/01 08:16:49;;;;;;;10.00;8.68;;;15.50;99.90;;;;;;5037281;28;20207;-88
2022/05/01 08:22:03;;;;;;;13.70;9.00;;;15.10;99.90;;;;;;5031762;28;20301;-86
2022/05/01 08:24:30;;;;;;;10.32;8.10;;;14.60;99.90;;;;;;5032522;28;20601;-86
2022/05/01 08:27:04;;;;;;;10.73;7.53;;;14.40;99.90;;;;;;5044350;28;20289;-87
2022/05/01 08:29:31;;;;;;;9.10;8.20;;;14.10;99.90;;;;;;5051149;28;20612;-87
2022/05/01 08:31:59;;;;;;;8.37;7.03;;;13.90;99.90;;;;;;5037606;28;20248;-85
2022/05/01 08:34:28;;;;;;;6.80;6.13;;;13.90;99.90;;;;;;5032284;28;20314;-86
2022/05/01 08:36:55;;;;;;;8.93;7.60;;;13.80;99.90;;;;;;5031306;28;20238;-86
2022/05/01 08:39:22;;;;;;;6.37;5.87;;;13.90;99.90;;;;;;5032383;28;20191;-86
2022/05/01 08:41:49;;;;;;;11.20;7.77;;;13.90;99.90;;;;;;5031783;28;20206;-86
2022/05/01 08:44:20;;;;;;;10.17;7.97;;;13.70;99.90;;;;;;5029295;28;20234;-83
2022/05/01 08:47:16;;;;;;;7.43;6.70;;;13.70;99.90;;;;;;5013521;28;20218;-84
2022/05/01 08:49:54;;;;;;;8.40;7.00;;;13.80;99.90;;;;;;5029696;28;20219;-84
2022/05/01 08:52:25;;;;;;;8.07;6.73;;;13.80;99.90;;;;;;5035507;28;20244;-87
2022/05/01 08:54:54;;;;;;;9.63;7.57;;;13.90;99.90;;;;;;5047719;28;20236;-83
2022/05/01 08:57:21;;;;;;;7.60;6.80;;;14.10;99.90;;;;;;5044491;28;20220;-87
2022/05/01 08:59:54;;;;;;;8.60;6.87;;;14.50;99.90;;;;;;5054834;28;20256;-89
2022/05/01 09:02:22;;;;;;;10.07;8.10;;;15.10;99.90;;;;;;5053853;28;20206;-87
2022/05/01 09:04:51;;;;;;;9.07;7.30;;;15.50;99.90;;;;;;5049505;28;20220;-84
2022/05/01 09:07:18;;;;;;;9.40;6.13;;;15.90;99.90;;;;;;5048800;28;20218;-85
2022/05/01 09:09:46;;;;;;;8.60;6.63;;;16.40;99.90;;;;;;5048593;28;20637;-86
2022/05/01 09:14:57;;;;;;;7.97;7.20;;;16.50;99.90;;;;;;5048941;28;20233;-85
2022/05/01 09:17:24;;;;;;;8.35;6.78;;;16.30;99.90;;;;;;5045947;28;20954;-85
2022/05/01 09:20:07;;;;;;;9.52;7.20;;;16.10;99.90;;;;;;5046864;28;20299;-84
2022/05/01 09:22:49;;;;;;;7.85;6.60;;;16.20;99.90;;;;;;5047695;28;20220;-82
2022/05/01 09:25:18;;;;;;;7.90;7.00;;;16.10;99.90;;;;;;5047198;28;20221;-84
2022/05/01 09:27:46;;;;;;;8.50;6.45;;;15.90;99.90;;;;;;5047485;28;20572;-83
2022/05/01 09:30:15;;;;;;;6.85;5.43;;;15.60;99.90;;;;;;5047684;28;20225;-83
2022/05/01 09:32:45;;;;;;;7.43;5.70;;;15.50;99.90;;;;;;5048037;28;20214;-84
2022/05/01 09:35:26;;;;;;;6.40;5.70;;;15.50;99.90;;;;;;5048071;28;20230;-83
2022/05/01 09:38:10;;;;;;;7.18;6.25;;;15.50;99.90;;;;;;5046041;28;20618;-84
2022/05/01 09:40:37;;;;;;;6.45;5.72;;;15.60;99.90;;;;;;5048470;28;20206;-84
2022/05/01 09:43:08;;;;;;;6.97;6.00;;;15.70;99.90;;;;;;5045564;28;20209;-85
2022/05/01 09:45:35;;;;;;;8.52;6.82;;;16.00;99.90;;;;;;5048129;28;20213;-83
2022/05/01 09:48:02;;;;;;;6.80;5.97;;;16.20;99.90;;;;;;5047552;28;20213;-87
2022/05/01 09:50:43;;;;;;;7.10;6.25;;;16.30;99.90;;;;;;5048100;28;20228;-83
2022/05/01 09:53:13;;;;;;;5.05;4.55;;;16.00;99.90;;;;;;5048583;28;20221;-87
2022/05/01 09:55:41;;;;;;;6.47;5.88;;;16.20;99.90;;;;;;5049201;28;20233;-83
2022/05/01 09:58:11;;;;;;;5.90;4.70;;;16.40;99.90;;;;;;5046121;28;20568;-83
2022/05/01 10:00:46;;;;;;;4.85;4.45;;;16.70;99.90;;;;;;5044886;28;20240;-85
2022/05/01 10:03:24;;;;;;;5.53;5.03;;;17.10;99.90;;;;;;5048487;28;20528;-86
2022/05/01 10:05:53;;;;;;;4.50;4.10;;;17.60;99.90;;;;;;5048814;28;20209;-83
2022/05/01 10:08:21;;;;;;;6.07;4.22;;;18.00;99.90;;;;;;5044311;28;20601;-83
2022/05/01 10:10:57;;;;;;;6.07;5.05;;;18.10;99.90;;;;;;5050049;28;20289;-84
2022/05/01 10:13:25;;;;;;;4.95;4.53;;;17.80;99.90;;;;;;5032648;28;20695;-83
2022/05/01 10:15:52;;;;;;;3.80;3.50;;;17.50;99.90;;;;;;5030482;28;20230;-85
2022/05/01 10:18:20;;;;;;;6.25;4.70;;;17.60;99.90;;;;;;5033002;28;20280;-86
2022/05/01 10:20:49;;;;;;;6.28;5.53;;;17.80;99.90;;;;;;5030951;28;20476;-85
2022/05/01 10:23:19;;;;;;;5.85;5.00;;;17.80;99.90;;;;;;5033257;28;20212;-85
2022/05/01 10:25:50;;;;;;;5.57;5.00;;;17.70;99.90;;;;;;5034379;28;20566;-84
2022/05/01 10:28:35;;;;;;;6.90;4.72;;;17.60;99.90;;;;;;5031240;28;20593;-84
2022/05/01 10:34:15;;;;;;;5.28;4.68;;;18.30;99.90;;;;;;5030477;28;20670;-90
2022/05/01 10:36:53;;;;;;;4.82;4.32;;;18.40;99.90;;;;;;5029087;28;20230;-86
2022/05/01 10:39:25;;;;;;;5.30;3.70;;;18.30;99.90;;;;;;5029043;28;20234;-85
2022/05/01 10:41:52;;;;;;;5.70;4.93;;;17.90;99.90;;;;;;5028449;28;20210;-82
2022/05/01 10:44:30;;;;;;;4.82;4.32;;;18.00;99.90;;;;;;5044927;28;20313;-84
2022/05/01 10:47:05;;;;;;;5.45;4.35;;;18.00;99.90;;;;;;5044220;28;20221;-88
2022/05/01 10:49:37;;;;;;;3.53;3.22;;;17.80;99.90;;;;;;5039014;28;20225;-83
2022/05/01 10:52:18;;;;;;;4.55;4.10;;;18.00;99.90;;;;;;5043853;28;20213;-85
2022/05/01 10:54:54;;;;;;;5.00;4.00;;;18.10;99.90;;;;;;5042796;28;20244;-83
2022/05/01 10:57:25;;;;;;;5.50;4.13;;;18.00;99.90;;;;;;5042737;28;20519;-82
2022/05/01 11:00:04;;;;;;;4.68;4.28;;;18.00;99.90;;;;;;5045873;28;20217;-85
2022/05/01 11:02:38;;;;;;;5.63;3.78;;;18.10;99.90;;;;;;5041150;28;20213;-83
2022/05/01 11:05:08;;;;;;;4.32;3.92;;;18.20;99.90;;;;;;5026296;28;20215;-84
2022/05/01 11:07:37;;;;;;;5.13;4.10;;;18.40;99.90;;;;;;5028128;28;20197;-86
2022/05/01 11:10:09;;;;;;;5.25;3.97;;;18.80;99.90;;;;;;5026053;28;20569;-84
2022/05/01 11:12:37;;;;;;;5.95;4.25;;;19.00;99.90;;;;;;5027363;28;20528;-88
2022/05/01 11:15:06;;;;;;;6.25;4.57;;;19.30;99.90;;;;;;5028573;28;20201;-84
2022/05/01 11:17:52;;;;;;;4.40;4.00;;;19.10;99.90;;;;;;5024571;28;20237;-83
2022/05/01 11:20:33;;;;;;;5.63;4.40;;;18.90;99.90;;;;;;5025221;28;20198;-83
2022/05/01 11:23:28;;;;;;;4.93;4.32;;;18.50;99.90;;;;;;5033216;28;20320;-82
2022/05/01 11:26:08;;;;;;;5.22;4.10;;;18.30;99.90;;;;;;5048965;28;20521;-80
2022/05/01 11:28:55;;;;;;;4.57;4.03;;;18.20;99.90;;;;;;5049003;28;20197;-81
2022/05/01 11:31:58;;;;;;;4.63;4.20;;;18.30;99.90;;;;;;5031703;28;20799;-81
2022/05/01 11:34:37;;;;;;;3.83;3.15;;;18.10;99.90;;;;;;5029510;28;20202;-81
2022/05/01 11:37:06;;;;;;;5.47;3.95;;;18.30;99.90;;;;;;5028784;28;20296;-82
2022/05/01 11:40:15;;;;;;;4.75;3.72;;;18.50;99.90;;;;;;5028293;28;20217;-81
2022/05/01 11:42:43;;;;;;;4.20;3.03;;;18.80;99.90;;;;;;5029002;28;20313;-81
2022/05/01 11:45:11;;;;;;;5.28;4.20;;;19.10;99.90;;;;;;5027360;28;20213;-82
2022/05/01 11:47:40;;;;;;;6.97;4.30;;;19.70;99.90;;;;;;5040266;28;20241;-82
2022/05/01 11:50:17;;;;;;;4.97;4.32;;;20.10;99.90;;;;;;5047632;28;20218;-81
2022/05/01 11:52:47;;;;;;;5.63;4.05;;;20.10;99.90;;;;;;5047751;28;20205;-82
2022/05/01 11:55:15;;;;;;;5.82;5.07;;;19.80;99.90;;;;;;5046388;28;20217;-81
2022/05/01 12:03:30;;;;;;;5.00;4.50;;;20.10;99.90;;;;;;5029672;28;20198;-83
2022/05/01 12:05:57;;;;;;;4.55;4.15;;;19.90;99.90;;;;;;5049149;28;20209;-84
2022/05/01 12:08:24;;;;;;;5.05;3.38;;;20.00;99.90;;;;;;5047966;28;20332;-82
2022/05/01 12:10:51;;;;;;;5.57;4.97;;;20.00;99.90;;;;;;5044543;28;20242;-84
2022/05/01 12:13:24;;;;;;;5.43;4.45;;;19.50;99.90;;;;;;5027574;28;20253;-85
2022/05/01 12:15:52;;;;;;;6.07;5.28;;;19.30;99.90;;;;;;5029960;28;20615;-86
2022/05/01 12:18:20;;;;;;;5.65;4.80;;;19.60;99.90;;;;;;5028221;28;20235;-86
2022/05/01 12:20:48;;;;;;;7.63;5.50;;;19.70;99.90;;;;;;5029958;28;20605;-84
2022/05/01 12:23:16;;;;;;;4.85;4.38;;;19.60;99.90;;;;;;5029027;28;20213;-83
2022/05/01 12:25:44;;;;;;;4.78;4.32;;;19.60;99.90;;;;;;5030174;28;20265;-89
2022/05/01 12:28:12;;;;;;;6.85;4.68;;;20.00;99.90;;;;;;5031022;28;20214;-84
2022/05/01 12:30:42;;;;;;;6.43;5.75;;;20.20;99.90;;;;;;5030195;28;20302;-83
2022/05/01 12:33:18;;;;;;;7.80;7.07;;;20.10;99.90;;;;;;5028784;28;20305;-84
2022/05/01 12:35:53;;;;;;;10.82;8.65;;;19.70;99.90;;;;;;5031456;28;20214;-88
2022/05/01 12:38:20;;;;;;;9.13;7.22;;;19.80;99.90;;;;;;5030427;28;20259;-84
2022/05/01 12:43:52;;;;;;;8.30;7.45;;;19.70;99.90;;;;;;4997159;28;20277;-88
2022/05/01 12:46:26;;;;;;;8.77;7.10;;;19.60;99.90;;;;;;5031325;28;20199;-91
2022/05/01 12:48:53;;;;;;;7.97;6.10;;;19.70;99.90;;;;;;5037625;28;20240;-85
2022/05/01 12:51:21;;;;;;;6.82;5.90;;;19.90;99.90;;;;;;5051687;28;20308;-86
2022/05/01 12:53:48;;;;;;;6.85;6.15;;;20.00;99.90;;;;;;5050942;28;20641;-86
2022/05/01 12:56:22;;;;;;;8.23;6.80;;;20.30;99.90;;;;;;5050210;28;20222;-84
2022/05/01 12:58:50;;;;;;;7.55;6.88;;;20.60;99.90;;;;;;5035612;28;20207;-84
2022/05/01 13:01:26;;;;;;;8.15;6.78;;;20.50;99.90;;;;;;5030704;28;20203;-88
2022/05/01 13:03:54;;;;;;;7.68;6.15;;;20.50;99.90;;;;;;5038014;28;20201;-82
2022/05/01 13:06:22;;;;;;;6.05;5.55;;;20.20;99.90;;;;;;5048509;28;20229;-83
2022/05/01 13:09:06;;;;;;;6.75;6.00;;;20.00;99.90;;;;;;5031555;28;20218;-82
2022/05/01 13:11:36;;;;;;;8.63;6.63;;;20.20;99.90;;;;;;5029451;28;20209;-88
2022/05/01 13:14:05;;;;;;;9.02;7.57;;;20.20;99.90;;;;;;5030669;28;20210;-84
2022/05/01 13:16:45;;;;;;;10.15;7.60;;;20.00;99.90;;;;;;5030404;28;20226;-88
2022/05/01 13:19:18;;;;;;;7.35;6.63;;;19.90;99.90;;;;;;5037832;23;20571;-87
2022/05/01 13:21:48;;;;;;;10.57;8.18;;;19.80;99.90;;;;;;5011900;28;20199;-85
2022/05/01 13:24:16;;;;;;;9.32;6.40;;;19.90;99.90;;;;;;5011193;28;20257;-87
2022/05/01 13:26:44;;;;;;;10.45;7.22;;;20.00;99.90;;;;;;5010959;28;20535;-87
2022/05/01 13:29:12;;;;;;;10.48;7.15;;;19.90;99.90;;;;;;5011368;28;20207;-87
2022/05/01 13:31:42;;;;;;;9.65;7.18;;;19.90;99.90;;;;;;5012030;28;20207;-88
2022/05/01 13:34:10;;;;;;;8.80;6.93;;;19.50;99.90;;;;;;5010058;28;20211;-84
2022/05/01 13:36:38;;;;;;;8.00;7.20;;;19.40;99.90;;;;;;5011803;28;20245;-89